Huvudsida
METAR-TAF:

METAR-TAF

Flygplatser :

Shillong Airport

Shillong, Indien

latitud: 25-42-13N, longitud: 091-58-43E, höjd: 887 m

Aktuellt väderrapport

Denna rapport gjordes för 21 minuter sedan, klockan 06:00 UTC
Vind 11 kt från väst
Temperatur 32°C
Fuktighet 21%
Tryck 1009 hPa
Sikt: 6000 m
Spridda moln på en höjd av 2000 ft

METAR: VEBI 240600Z 28011KT 6000 SCT020 32/07 Q1009 NOSIG

Tid: 11:51 (06:21 UTC)

Väderprognos

Denna rapport gjordes för 1 timme och 21 minuter sedan, klockan 05:00 UTC
Prognos gäller från 24 kl. 06 UTC till 24 kl. 15 UTC
Vind 7 kt från väst/nordväst
Sikt: 5000 m
Få moln på en höjd av 2000 ft
Spridda moln på en höjd av 10000 ft
torrdis
Blir
från 24 kl. 13 UTC till 24 kl. 15 UTC
Vind 5 kt från nord/nordost
Sikt: 3000 m
Spridda moln på en höjd av 2000 ft
Spridda moln på en höjd av 10000 ft
torrdis,

TAF: VEBI 240500Z 2406/2415 29007KT 5000 HZ FEW020 SCT100 BECMG 2413/2415 02005KT 3000 HZ SCT020 SCT100

Aktuella väderrapporter och prognoser från 4000 flygplatser (METAR- och TAF-rapporter).

De tillgängliga stationerna syns som gula och röda prickar på kartan.

För musen över prickarna för att se namnen på stationerna.

Klicka sedan för att få väderrapporter och prognoser.

För att ändra kartan: Klicka på de gröna knapparna med ett svart kors på för att zooma in; den gröna knappen med ett streck på för att zooma ut; eller på de gröna pilarna för angränsande kartor.


METAR-TAF: